메인 페이지
METAR-TAF:

METAR-TAF

공항 :

Fallon, 네바다, 미국

위도: 39-25-56N, 경도: 118-41-08W, 고도: 1199m

현재 날씨관측

예보는 18 시간 30분 전, 14:56시(UTC)에 발표되었습니다.
남동4kt
온도 -12°C
습도 85%
기압 1019 hPa
시정: 16.1km
고도 10000ft 상공 구름 보통
고도 15000ft 상공 구름 보통

METAR: KNFL 201456Z 13004KT 10SM SCT100 SCT150 M12/M14 A3010 RMK AO2 SLP158 T11221139 53010

시각: 01:26 (09:26 UTC)

예보

예보 대상 시간: 20일 15시부터 21일 15시까지 (UTC)
8kt, 순간 최대 풍속 18kt
시정 10km 이상
고도 10000ft 상공 구름 보통
고도 18000ft 상공 구름 보통
21일 0200시부터 (UTC)
여러 방향의 바람 6kt
시정 10km 이상
고도 10000ft 상공 구름 많음
고도 18000ft 상공 구름 많음

TAF: KNFL 2015/2115 35008G18KT 9999 SCT100 SCT180 QNH3005INS FM210200 VRB06KT 9999 BKN100 BKN180 QNH3000INS T02/2023Z TM12/2114Z FS30003

4,000개 이상의 공항 관측 자료 및 예보 (METAR 및 TAF 보고).

지도상에서 검색 가능한 기상관측소가 노란 점과 빨간 점으로 표시되어 있습니다.

기상관측소 명을 보려면 표시 위로 마우스를 이동하세요.

날씨 관측과 예보를 보려면 클릭하세요.

지도 변경 : 확대하려면 엑스 표시가 있는 녹색 버튼, 축소하려면 빼기 표시가 있는 녹색 버튼, 다음 페이지의 지도를 보려면 녹색 화살표를 클릭하세요.


METAR-TAF: